createdAt,value
2018-04-11T00:02:24.424Z,11.29
2018-04-11T00:04:52.848Z,11.30
2018-04-11T00:07:21.323Z,11.29
2018-04-11T00:09:49.760Z,11.29
2018-04-11T00:12:18.181Z,11.34
2018-04-11T00:14:46.653Z,11.32
2018-04-11T00:17:15.068Z,11.28
2018-04-11T00:19:43.483Z,11.34
2018-04-11T00:22:12.105Z,11.26
2018-04-11T00:24:40.521Z,11.16
2018-04-11T00:27:08.931Z,11.13
2018-04-11T00:29:37.381Z,11.05
2018-04-11T00:32:05.798Z,11.01
2018-04-11T00:34:34.236Z,10.93
2018-04-11T00:37:02.688Z,10.89
2018-04-11T00:39:31.101Z,10.86
2018-04-11T00:41:59.513Z,10.83
2018-04-11T00:44:27.973Z,10.82
2018-04-11T00:46:56.397Z,10.81
2018-04-11T00:49:24.809Z,10.80
2018-04-11T00:51:53.269Z,10.81
2018-04-11T00:54:21.688Z,10.72
2018-04-11T00:56:50.117Z,10.69
2018-04-11T00:59:18.570Z,10.67
2018-04-11T01:01:46.984Z,10.70
2018-04-11T01:04:15.400Z,10.69
2018-04-11T01:06:43.852Z,10.65
2018-04-11T01:09:12.256Z,10.66
2018-04-11T01:11:40.675Z,10.60
2018-04-11T01:14:09.132Z,10.57
2018-04-11T01:16:37.549Z,10.52
2018-04-11T01:19:05.968Z,10.44
2018-04-11T01:21:34.421Z,10.36
2018-04-11T01:24:02.840Z,10.35
2018-04-11T01:26:31.258Z,10.36
2018-04-11T01:28:59.746Z,10.29
2018-04-11T01:31:28.157Z,10.20
2018-04-11T01:33:56.568Z,10.13
2018-04-11T01:36:25.032Z,10.10
2018-04-11T01:38:53.445Z,10.06
2018-04-11T01:41:21.856Z,10.06
2018-04-11T01:43:50.326Z,10.03
2018-04-11T01:46:18.736Z,9.92
2018-04-11T01:48:47.152Z,9.93
2018-04-11T01:51:15.607Z,9.90
2018-04-11T01:53:44.013Z,9.85
2018-04-11T01:56:12.416Z,9.76
2018-04-11T01:58:40.877Z,9.80
2018-04-11T02:01:09.288Z,9.85
2018-04-11T02:03:37.698Z,9.88
2018-04-11T02:06:06.158Z,9.83
2018-04-11T02:08:34.571Z,9.85
2018-04-11T02:11:02.992Z,9.95
2018-04-11T02:13:31.451Z,9.94
2018-04-11T02:15:59.883Z,9.97
2018-04-11T02:18:28.307Z,9.95
2018-04-11T02:20:56.761Z,9.92
2018-04-11T02:23:25.199Z,9.92
2018-04-11T02:25:53.613Z,9.94
2018-04-11T02:28:22.072Z,9.84
2018-04-11T02:30:50.481Z,9.75
2018-04-11T02:33:18.886Z,9.79
2018-04-11T02:35:47.341Z,9.76
2018-04-11T02:38:15.749Z,9.75
2018-04-11T02:40:44.160Z,9.75
2018-04-11T02:43:12.768Z,9.74
2018-04-11T02:45:41.172Z,9.76
2018-04-11T02:48:09.581Z,9.80
2018-04-11T02:50:38.045Z,9.84
2018-04-11T02:53:06.454Z,9.86
2018-04-11T02:55:34.865Z,9.91
2018-04-11T02:58:03.324Z,9.90
2018-04-11T03:00:31.734Z,9.84
2018-04-11T03:03:00.145Z,9.82
2018-04-11T03:05:28.607Z,9.79
2018-04-11T03:07:57.018Z,9.80
2018-04-11T03:10:25.429Z,9.82
2018-04-11T03:12:53.888Z,9.84
2018-04-11T03:15:22.299Z,9.86
2018-04-11T03:17:50.708Z,9.89
2018-04-11T03:20:19.177Z,9.91
2018-04-11T03:22:47.590Z,9.94
2018-04-11T03:25:16.031Z,9.86
2018-04-11T03:27:44.489Z,9.90
2018-04-11T03:30:12.901Z,10.02
2018-04-11T03:32:41.312Z,10.01
2018-04-11T03:35:09.785Z,10.03
2018-04-11T03:37:38.201Z,10.00
2018-04-11T03:40:06.620Z,10.02
2018-04-11T03:42:35.075Z,10.11
2018-04-11T03:45:03.494Z,10.13
2018-04-11T03:47:31.907Z,10.13
2018-04-11T03:50:00.365Z,10.19
2018-04-11T03:52:28.775Z,10.16
2018-04-11T03:54:57.189Z,10.14
2018-04-11T03:57:25.822Z,10.00
2018-04-11T03:59:54.232Z,9.85
2018-04-11T04:02:22.639Z,9.68
2018-04-11T04:04:51.088Z,9.62
2018-04-11T04:07:19.506Z,9.60
2018-04-11T04:09:47.911Z,9.56
2018-04-11T04:12:16.365Z,9.55
2018-04-11T04:14:56.600Z,9.58
2018-04-11T04:17:36.867Z,9.57
2018-04-11T04:20:28.892Z,9.61
2018-04-11T04:22:57.338Z,9.62
2018-04-11T04:25:25.760Z,9.61
2018-04-11T04:27:54.174Z,9.62
2018-04-11T04:30:22.644Z,9.60
2018-04-11T04:32:51.093Z,9.53
2018-04-11T04:35:19.495Z,9.47
2018-04-11T04:37:47.947Z,9.33
2018-04-11T04:40:16.374Z,9.45
2018-04-11T04:42:44.789Z,9.43
2018-04-11T04:45:13.262Z,9.47
2018-04-11T04:47:41.678Z,9.59
2018-04-11T04:50:10.090Z,9.68
2018-04-11T04:52:38.603Z,9.70
2018-04-11T04:55:07.019Z,9.73
2018-04-11T04:57:35.432Z,9.76
2018-04-11T05:00:03.928Z,9.81
2018-04-11T05:02:32.353Z,9.77
2018-04-11T05:05:00.881Z,9.68
2018-04-11T05:07:29.344Z,9.76
2018-04-11T05:09:57.750Z,9.70
2018-04-11T05:12:26.161Z,9.75
2018-04-11T05:14:54.626Z,9.74
2018-04-11T05:17:23.032Z,9.71
2018-04-11T05:19:51.475Z,9.65
2018-04-11T05:22:19.928Z,9.87
2018-04-11T05:24:48.363Z,9.94
2018-04-11T05:27:16.833Z,10.02
2018-04-11T05:29:45.264Z,10.13
2018-04-11T05:32:13.720Z,10.14
2018-04-11T05:34:42.133Z,10.22
2018-04-11T05:37:10.597Z,10.22
2018-04-11T05:39:39.008Z,10.24
2018-04-11T05:42:07.422Z,10.16
2018-04-11T05:44:35.876Z,10.23
2018-04-11T05:47:04.284Z,10.29
2018-04-11T05:49:32.692Z,10.32
2018-04-11T05:52:01.144Z,10.34
2018-04-11T05:54:29.563Z,10.37
2018-04-11T05:56:57.990Z,10.43
2018-04-11T05:59:26.460Z,10.40
2018-04-11T06:01:54.877Z,10.31
2018-04-11T06:04:23.289Z,10.34
2018-04-11T06:06:51.833Z,10.23
2018-04-11T06:09:20.245Z,10.24
2018-04-11T06:11:48.661Z,10.24
2018-04-11T06:14:17.136Z,10.25
2018-04-11T06:16:45.548Z,10.30
2018-04-11T06:19:13.987Z,10.30
2018-04-11T06:21:42.447Z,10.36
2018-04-11T06:24:10.859Z,10.31
2018-04-11T06:26:39.268Z,10.33
2018-04-11T06:29:07.738Z,10.43
2018-04-11T06:31:36.152Z,10.46
2018-04-11T06:34:04.573Z,10.48
2018-04-11T06:36:33.020Z,10.41
2018-04-11T06:39:01.473Z,10.44
2018-04-11T06:41:30.232Z,10.51
2018-04-11T06:43:58.851Z,10.53
2018-04-11T06:46:27.267Z,10.56
2018-04-11T06:48:55.730Z,10.55
2018-04-11T06:51:24.205Z,10.58
2018-04-11T06:53:52.655Z,10.62
2018-04-11T06:56:21.077Z,10.61
2018-04-11T06:58:49.543Z,10.69
2018-04-11T07:01:17.997Z,10.75
2018-04-11T07:03:46.415Z,10.77
2018-04-11T07:06:14.869Z,10.84
2018-04-11T07:08:43.284Z,10.94
2018-04-11T07:11:11.700Z,10.96
2018-04-11T07:13:40.144Z,10.92
2018-04-11T07:16:08.560Z,10.95
2018-04-11T07:18:36.970Z,11.09
2018-04-11T07:21:05.423Z,11.21
2018-04-11T07:23:33.837Z,11.33
2018-04-11T07:26:02.258Z,11.47
2018-04-11T07:28:30.741Z,11.50
2018-04-11T07:30:59.149Z,11.69
2018-04-11T07:33:27.568Z,11.79
2018-04-11T07:35:56.022Z,11.85
2018-04-11T07:38:24.436Z,11.90
2018-04-11T07:40:52.845Z,11.93
2018-04-11T07:43:21.299Z,12.05
2018-04-11T07:45:49.716Z,12.12
2018-04-11T07:48:18.157Z,12.23
2018-04-11T07:50:46.615Z,12.24
2018-04-11T07:53:15.033Z,12.29
2018-04-11T07:55:43.449Z,12.38
2018-04-11T07:58:11.902Z,12.50
2018-04-11T08:00:40.320Z,12.58
2018-04-11T08:03:08.750Z,12.60
2018-04-11T08:05:37.227Z,12.59
2018-04-11T08:08:05.653Z,12.60
2018-04-11T08:10:34.069Z,12.59
2018-04-11T08:13:02.517Z,12.67
2018-04-11T08:15:30.933Z,12.80
2018-04-11T08:17:59.344Z,12.96
2018-04-11T08:20:27.855Z,13.00
2018-04-11T08:22:56.273Z,13.33
2018-04-11T08:25:24.684Z,13.76
2018-04-11T08:27:53.154Z,14.14
2018-04-11T08:30:21.568Z,14.39
2018-04-11T08:32:50.006Z,14.57
2018-04-11T08:35:18.456Z,14.48
2018-04-11T08:37:46.873Z,13.99
2018-04-11T08:40:15.288Z,14.04
2018-04-11T08:42:43.752Z,14.24
2018-04-11T08:45:12.164Z,14.49
2018-04-11T08:47:40.576Z,14.56
2018-04-11T08:50:09.029Z,14.87
2018-04-11T08:52:37.539Z,14.98
2018-04-11T08:55:05.883Z,14.90
2018-04-11T08:57:34.357Z,15.02
2018-04-11T09:00:02.773Z,15.19
2018-04-11T09:02:31.202Z,15.38
2018-04-11T09:04:59.673Z,15.34
2018-04-11T09:07:28.090Z,15.27
2018-04-11T09:09:56.509Z,15.41
2018-04-11T09:12:24.986Z,15.56
2018-04-11T09:14:53.397Z,15.61
2018-04-11T09:17:21.804Z,15.64
2018-04-11T09:19:50.269Z,15.42
2018-04-11T09:22:18.684Z,15.25
2018-04-11T09:24:47.104Z,15.27
2018-04-11T09:27:15.559Z,15.25
2018-04-11T09:32:11.476Z,15.62
2018-04-11T09:34:39.936Z,15.92
2018-04-11T09:37:08.350Z,16.11
2018-04-11T09:39:36.760Z,16.18
2018-04-11T09:42:05.212Z,15.95
2018-04-11T09:44:33.629Z,15.90
2018-04-11T09:47:02.041Z,15.87
2018-04-11T09:49:30.537Z,15.88
2018-04-11T09:51:58.965Z,15.83
2018-04-11T09:54:27.388Z,15.81
2018-04-11T09:56:55.858Z,15.71
2018-04-11T09:59:24.289Z,15.75
2018-04-11T10:01:52.710Z,15.77
2018-04-11T10:04:21.179Z,15.82
2018-04-11T10:06:50.504Z,16.07
2018-04-11T10:09:18.937Z,16.06
2018-04-11T10:11:47.393Z,16.14
2018-04-11T10:14:15.806Z,16.29
2018-04-11T10:16:44.249Z,16.61
2018-04-11T10:19:12.704Z,16.87
2018-04-11T10:21:41.136Z,16.64
2018-04-11T10:24:09.568Z,16.50
2018-04-11T10:26:38.025Z,16.27
2018-04-11T10:29:06.446Z,16.20
2018-04-11T10:31:34.868Z,16.16
2018-04-11T10:34:03.349Z,16.07
2018-04-11T10:36:31.764Z,16.09
2018-04-11T10:39:00.182Z,15.94
2018-04-11T10:41:28.639Z,16.07
2018-04-11T10:43:57.053Z,16.24
2018-04-11T10:46:25.468Z,16.26
2018-04-11T10:48:53.921Z,16.22
2018-04-11T10:51:22.337Z,16.19
2018-04-11T10:53:50.780Z,16.40
2018-04-11T10:56:19.244Z,16.39
2018-04-11T10:58:47.661Z,16.21
2018-04-11T11:01:16.076Z,16.15
2018-04-11T11:03:44.529Z,16.15
2018-04-11T11:06:12.969Z,16.10
2018-04-11T11:08:41.384Z,16.08
2018-04-11T11:11:09.841Z,16.13
2018-04-11T11:13:38.285Z,16.10
2018-04-11T11:16:06.703Z,16.06
2018-04-11T11:18:35.180Z,16.05
2018-04-11T11:21:03.648Z,16.12
2018-04-11T11:23:32.081Z,16.01
2018-04-11T11:26:00.555Z,16.05
2018-04-11T11:28:28.972Z,16.05
2018-04-11T11:30:57.384Z,16.00
2018-04-11T11:33:25.877Z,15.92
2018-04-11T11:35:54.309Z,15.75
2018-04-11T11:38:22.720Z,15.73
2018-04-11T11:40:51.192Z,15.71
2018-04-11T11:43:19.644Z,15.70
2018-04-11T11:45:48.060Z,15.74
2018-04-11T11:48:16.517Z,15.75
2018-04-11T11:50:44.937Z,15.70
2018-04-11T11:53:13.360Z,15.69
2018-04-11T11:55:41.824Z,15.74
2018-04-11T11:58:10.231Z,15.85
2018-04-11T12:00:38.653Z,16.40
2018-04-11T12:03:07.101Z,16.64
2018-04-11T12:05:35.546Z,16.79
2018-04-11T12:08:03.989Z,16.86
2018-04-11T12:10:32.451Z,17.10
2018-04-11T12:13:00.865Z,17.31
2018-04-11T12:15:29.283Z,17.13
2018-04-11T12:17:57.754Z,16.87
2018-04-11T12:20:26.166Z,16.56
2018-04-11T12:22:54.586Z,16.29
2018-04-11T12:25:23.070Z,16.22
2018-04-11T12:27:51.492Z,16.15
2018-04-11T12:30:19.908Z,16.20
2018-04-11T12:32:48.373Z,16.22
2018-04-11T12:35:16.792Z,16.24
2018-04-11T12:37:45.208Z,16.33
2018-04-11T12:40:13.676Z,16.44
2018-04-11T12:42:42.092Z,16.55
2018-04-11T12:45:10.505Z,16.68
2018-04-11T12:47:38.960Z,16.88
2018-04-11T12:50:07.373Z,17.10
2018-04-11T12:52:35.784Z,17.40
2018-04-11T12:55:04.242Z,17.58
2018-04-11T12:57:32.684Z,17.59
2018-04-11T13:00:01.099Z,17.88
2018-04-11T13:02:29.552Z,17.94
2018-04-11T13:04:57.971Z,17.93
2018-04-11T13:07:26.388Z,17.93
2018-04-11T13:09:54.871Z,17.69
2018-04-11T13:12:23.304Z,17.68
2018-04-11T13:14:51.747Z,17.44
2018-04-11T13:17:20.201Z,17.35
2018-04-11T13:19:48.622Z,17.42
2018-04-11T13:22:17.043Z,17.26
2018-04-11T13:24:45.513Z,17.02
2018-04-11T13:27:13.924Z,17.04
2018-04-11T13:29:42.337Z,16.82
2018-04-11T13:32:10.795Z,16.91
2018-04-11T13:34:39.232Z,16.91
2018-04-11T13:37:07.668Z,16.84
2018-04-11T13:39:36.126Z,16.80
2018-04-11T13:42:04.541Z,16.73
2018-04-11T13:44:32.984Z,16.70
2018-04-11T13:47:01.712Z,16.84
2018-04-11T13:49:30.125Z,16.82
2018-04-11T13:51:58.548Z,16.85
2018-04-11T13:54:27.016Z,16.85
2018-04-11T13:56:55.429Z,16.92
2018-04-11T13:59:23.844Z,17.02
2018-04-11T14:01:52.325Z,17.01
2018-04-11T14:04:20.764Z,16.83
2018-04-11T14:06:49.186Z,16.82
2018-04-11T14:09:17.665Z,16.83
2018-04-11T14:11:46.076Z,16.78
2018-04-11T14:14:14.504Z,16.67
2018-04-11T14:16:42.985Z,16.57
2018-04-11T14:19:11.404Z,16.38
2018-04-11T14:21:39.848Z,16.34
2018-04-11T14:24:08.317Z,16.27
2018-04-11T14:26:36.740Z,16.27
2018-04-11T14:29:05.175Z,16.17
2018-04-11T14:31:33.687Z,16.12
2018-04-11T14:34:02.080Z,16.02
2018-04-11T14:36:30.498Z,15.86
2018-04-11T14:38:58.949Z,15.78
2018-04-11T14:41:27.366Z,15.70
2018-04-11T14:43:55.776Z,15.61
2018-04-11T14:46:24.244Z,15.58
2018-04-11T14:48:52.655Z,15.58
2018-04-11T14:51:21.065Z,15.49
2018-04-11T14:53:49.529Z,15.51
2018-04-11T14:56:17.949Z,15.50
2018-04-11T14:58:46.364Z,15.50
2018-04-11T15:01:14.828Z,15.42
2018-04-11T15:03:43.240Z,15.31
2018-04-11T15:06:11.656Z,15.33
2018-04-11T15:08:40.105Z,15.35
2018-04-11T15:11:08.519Z,15.29
2018-04-11T15:13:36.929Z,15.29
2018-04-11T15:16:05.380Z,15.29
2018-04-11T15:18:33.792Z,15.30
2018-04-11T15:21:02.207Z,15.27
2018-04-11T15:23:30.671Z,15.26
2018-04-11T15:25:59.090Z,15.20
2018-04-11T15:28:27.505Z,15.21
2018-04-11T15:30:55.961Z,15.27
2018-04-11T15:33:24.373Z,15.42
2018-04-11T15:35:52.783Z,15.48
2018-04-11T15:38:21.232Z,15.47
2018-04-11T15:40:49.649Z,15.47
2018-04-11T15:43:18.056Z,15.53
2018-04-11T15:45:46.528Z,15.59
2018-04-11T15:48:14.948Z,15.61
2018-04-11T15:50:43.415Z,15.54
2018-04-11T15:53:11.876Z,-146.80
2018-04-11T15:55:40.311Z,-146.80
2018-04-11T15:58:08.749Z,-146.80
2018-04-11T16:00:37.224Z,15.65
2018-04-11T16:03:05.672Z,-146.80
2018-04-11T16:05:34.107Z,-146.80
2018-04-11T16:08:02.580Z,-146.80
2018-04-11T16:10:31.028Z,-146.80
2018-04-11T16:12:59.464Z,-146.80
2018-04-11T16:15:27.959Z,-146.80
2018-04-11T16:17:56.400Z,-146.80
2018-04-11T16:20:24.832Z,-146.80
2018-04-11T16:22:53.307Z,-146.80
2018-04-11T16:25:21.752Z,-146.80
2018-04-11T16:27:50.198Z,-146.80
2018-04-11T16:30:18.672Z,-146.80
2018-04-11T16:32:47.108Z,-146.80
2018-04-11T16:35:15.579Z,-146.80
2018-04-11T16:37:44.080Z,-146.80
2018-04-11T16:40:12.549Z,-146.80
2018-04-11T16:42:40.995Z,-146.80
2018-04-11T16:45:09.481Z,-146.80
2018-04-11T16:47:37.936Z,-146.80
2018-04-11T16:50:06.374Z,-146.80
2018-04-11T16:52:34.869Z,-146.80
2018-04-11T16:55:03.307Z,-146.80
2018-04-11T16:57:31.752Z,-146.80
2018-04-11T17:00:00.237Z,-146.80
2018-04-11T17:02:28.673Z,-146.80
2018-04-11T17:04:57.109Z,-146.80
2018-04-11T17:07:25.596Z,-146.80
2018-04-11T17:09:54.051Z,-146.80
2018-04-11T17:12:22.511Z,-146.80
2018-04-11T17:14:51.004Z,-146.80
2018-04-11T17:17:19.469Z,-146.80
2018-04-11T17:19:47.932Z,-146.80
2018-04-11T17:22:28.094Z,-146.80
2018-04-11T17:25:08.236Z,-146.80
2018-04-11T17:27:48.521Z,-146.80
2018-04-11T17:30:28.700Z,-146.80
2018-04-11T17:32:57.177Z,-146.80
2018-04-11T17:35:25.633Z,-146.80
2018-04-11T17:37:54.068Z,-146.80
2018-04-11T17:40:22.560Z,-146.80
2018-04-11T17:42:50.997Z,-146.80
2018-04-11T17:45:19.454Z,-146.80
2018-04-11T17:47:47.945Z,-146.80
2018-04-11T17:50:16.411Z,-146.80
2018-04-11T17:52:44.856Z,-146.80
2018-04-11T17:55:13.332Z,-146.80
2018-04-11T17:57:41.777Z,-146.80
2018-04-11T18:00:10.221Z,-146.80
2018-04-11T18:02:38.713Z,-146.80
2018-04-11T18:05:07.159Z,-146.80
2018-04-11T18:07:35.597Z,-146.80
2018-04-11T18:10:04.110Z,-146.80
2018-04-11T18:12:32.557Z,-146.80
2018-04-11T18:15:01.003Z,-146.80
2018-04-11T18:17:29.529Z,-146.80
2018-04-11T18:19:57.973Z,-146.80
2018-04-11T18:22:26.485Z,-146.80
2018-04-11T18:24:54.972Z,-146.80
2018-04-11T18:27:23.427Z,-146.80
2018-04-11T18:29:51.874Z,-146.80
2018-04-11T18:32:20.369Z,-146.80
2018-04-11T18:34:48.824Z,-146.80
2018-04-11T18:37:17.257Z,-146.80
2018-04-11T18:39:45.754Z,-146.80
2018-04-11T18:42:14.196Z,-146.80
2018-04-11T18:44:42.645Z,-146.80
2018-04-11T18:47:11.125Z,-146.80
2018-04-11T18:49:39.568Z,-146.80
2018-04-11T18:52:08.025Z,-146.80
2018-04-11T18:54:36.512Z,-146.80
2018-04-11T18:57:04.961Z,-146.80
2018-04-11T18:59:33.408Z,-146.80
2018-04-11T19:02:01.894Z,-146.80
2018-04-11T19:04:30.340Z,-146.80
2018-04-11T19:09:00.085Z,12.10
2018-04-11T19:11:28.500Z,12.07
2018-04-11T19:13:56.915Z,12.03
2018-04-11T19:16:25.414Z,11.98
2018-04-11T19:18:53.868Z,11.99
2018-04-11T19:21:22.305Z,11.91
2018-04-11T19:23:50.786Z,11.91
2018-04-11T19:26:19.228Z,11.96
2018-04-11T19:28:47.636Z,11.93
2018-04-11T19:31:16.111Z,11.97
2018-04-11T19:33:44.534Z,11.96
2018-04-11T19:36:13.041Z,11.96
2018-04-11T19:38:41.521Z,11.91
2018-04-11T19:41:09.956Z,11.86
2018-04-11T19:43:38.440Z,11.83
2018-04-11T19:46:06.921Z,11.87
2018-04-11T19:48:35.360Z,11.84
2018-04-11T19:51:03.808Z,11.82
2018-04-11T19:53:32.274Z,11.78
2018-04-11T19:56:00.685Z,11.75
2018-04-11T19:58:29.120Z,11.68
2018-04-11T20:00:57.651Z,11.65
2018-04-11T20:03:26.098Z,11.67
2018-04-11T20:05:54.508Z,11.71
2018-04-11T20:08:22.968Z,11.66
2018-04-11T20:10:51.381Z,11.54
2018-04-11T20:13:19.816Z,11.48
2018-04-11T20:15:48.312Z,11.47
2018-04-11T20:18:16.798Z,11.49
2018-04-11T20:20:45.226Z,11.34
2018-04-11T20:23:13.700Z,11.28
2018-04-11T20:25:42.117Z,11.23
2018-04-11T20:28:10.560Z,11.19
2018-04-11T20:30:39.038Z,11.16
2018-04-11T20:33:07.450Z,11.14
2018-04-11T20:35:35.864Z,11.13
2018-04-11T20:38:04.337Z,11.18
2018-04-11T20:40:32.763Z,11.19
2018-04-11T20:43:01.173Z,11.22
2018-04-11T20:45:29.641Z,11.20
2018-04-11T20:47:58.112Z,11.22
2018-04-11T20:50:26.528Z,11.30
2018-04-11T20:52:54.999Z,11.29
2018-04-11T20:55:23.422Z,11.27
2018-04-11T20:57:51.837Z,11.21
2018-04-11T21:00:20.287Z,11.06
2018-04-11T21:02:48.697Z,10.99
2018-04-11T21:05:17.136Z,10.97
2018-04-11T21:07:45.589Z,10.87
2018-04-11T21:10:14.000Z,10.75
2018-04-11T21:12:42.408Z,10.71
2018-04-11T21:15:10.921Z,10.71
2018-04-11T21:17:39.316Z,10.73
2018-04-11T21:20:07.732Z,10.69
2018-04-11T21:22:36.180Z,10.67
2018-04-11T21:25:04.613Z,10.71
2018-04-11T21:27:33.077Z,10.73
2018-04-11T21:30:01.549Z,10.79
2018-04-11T21:32:30.060Z,10.85
2018-04-11T21:34:58.480Z,10.86
2018-04-11T21:37:26.949Z,10.84
2018-04-11T21:39:55.356Z,10.92
2018-04-11T21:42:23.768Z,10.86
2018-04-11T21:44:52.216Z,10.76
2018-04-11T21:47:20.629Z,10.80
2018-04-11T21:49:49.049Z,10.81
2018-04-11T21:52:17.500Z,10.82
2018-04-11T21:54:45.929Z,10.84
2018-04-11T21:57:14.344Z,10.86
2018-04-11T21:59:42.792Z,10.81
2018-04-11T22:02:11.207Z,10.77
2018-04-11T22:04:39.625Z,10.71
2018-04-11T22:07:08.083Z,10.70
2018-04-11T22:09:36.497Z,10.70
2018-04-11T22:12:04.908Z,10.71
2018-04-11T22:14:33.379Z,10.72
2018-04-11T22:17:01.797Z,10.70
2018-04-11T22:19:30.213Z,10.65
2018-04-11T22:21:58.681Z,10.57
2018-04-11T22:24:27.102Z,10.62
2018-04-11T22:26:55.545Z,10.64
2018-04-11T22:29:24.007Z,10.71
2018-04-11T22:31:52.420Z,10.67
2018-04-11T22:34:20.832Z,10.70
2018-04-11T22:36:49.300Z,10.73
2018-04-11T22:39:17.721Z,10.77
2018-04-11T22:41:46.135Z,10.80
2018-04-11T22:44:14.592Z,10.82
2018-04-11T22:46:43.009Z,10.89
2018-04-11T22:49:11.428Z,10.89
2018-04-11T22:51:39.876Z,10.92
2018-04-11T22:54:08.340Z,10.97
2018-04-11T22:56:36.772Z,10.97
2018-04-11T22:59:05.224Z,10.97
2018-04-11T23:01:33.641Z,11.02
2018-04-11T23:04:02.060Z,11.08
2018-04-11T23:06:30.515Z,11.07
2018-04-11T23:08:58.931Z,11.14
2018-04-11T23:11:27.361Z,11.12
2018-04-11T23:13:55.836Z,11.15
2018-04-11T23:16:24.266Z,11.19
2018-04-11T23:18:52.680Z,11.29
2018-04-11T23:21:21.407Z,11.25
2018-04-11T23:23:49.837Z,11.33
2018-04-11T23:26:18.258Z,11.37
2018-04-11T23:28:46.725Z,11.34
2018-04-11T23:31:15.169Z,11.32
2018-04-11T23:33:43.589Z,11.23
2018-04-11T23:36:12.068Z,11.27
2018-04-11T23:38:40.476Z,11.25
2018-04-11T23:41:08.893Z,11.14
2018-04-11T23:43:37.349Z,11.07
2018-04-11T23:46:05.771Z,11.07
2018-04-11T23:48:34.185Z,11.02
2018-04-11T23:51:02.649Z,11.01
2018-04-11T23:53:31.065Z,10.99
2018-04-11T23:55:59.480Z,10.98
2018-04-11T23:58:27.941Z,10.97
